Time;durP1;ratioP1;P1;durP2;ratioP2;P2;SDS_P1;SDS_P2;PMS_P1;PMS_P2;Temp;Humidity;BMP_temperature;BMP_pressure;BME280_temperature;BME280_humidity;BME280_pressure;Samples;Min_cycle;Max_cycle;Signal;HPM_P1;HPM_P2
2021/07/05 00:00:10;;;;;;;5.45;1.77;;;;;;;;;;348472;28;68968;-75
2021/07/05 00:00:23;;;;;;;5.65;1.70;;;;;;;;;;347456;28;93030;-76
2021/07/05 00:00:36;;;;;;;5.05;1.50;;;;;;;;;;348329;28;67838;-75
2021/07/05 00:00:48;;;;;;;6.70;1.60;;;;;;;;;;348448;28;69017;-76
2021/07/05 00:01:01;;;;;;;5.93;1.35;;;;;;;;;;349839;28;69020;-77
2021/07/05 00:01:13;;;;;;;6.63;1.63;;;;;;;;;;350665;28;45792;-75
2021/07/05 00:01:26;;;;;;;7.60;1.80;;;;;;;;;;349831;28;69029;-76
2021/07/05 00:01:38;;;;;;;7.90;1.83;;;;;;;;;;349329;28;45573;-76
2021/07/05 00:01:51;;;;;;;6.07;1.83;;;;;;;;;;348509;28;68997;-76
2021/07/05 00:02:03;;;;;;;5.20;1.92;;;;;;;;;;350260;28;46104;-76
2021/07/05 00:02:16;;;;;;;5.05;1.80;;;;;;;;;;348257;28;68959;-75
2021/07/05 00:02:29;;;;;;;6.47;1.90;;;;;;;;;;348422;28;69002;-77
2021/07/05 00:02:42;;;;;;;6.60;1.90;;;;;;;;;;348461;28;68719;-76
2021/07/05 00:02:55;;;;;;;5.25;1.70;;;;;;;;;;348376;28;69869;-76
2021/07/05 00:03:07;;;;;;;5.63;1.70;;;;;;;;;;349957;28;69012;-77
2021/07/05 00:03:20;;;;;;;6.43;1.80;;;;;;;;;;349146;28;45817;-75
2021/07/05 00:03:32;;;;;;;6.32;1.80;;;;;;;;;;348508;28;69012;-76
2021/07/05 00:03:45;;;;;;;6.68;1.88;;;;;;;;;;350565;28;45311;-77
2021/07/05 00:03:57;;;;;;;6.53;1.98;;;;;;;;;;349884;28;68260;-76
2021/07/05 00:04:12;;;;;;;5.05;1.77;;;;;;;;;;350508;28;46072;-76
2021/07/05 00:04:25;;;;;;;5.65;1.67;;;;;;;;;;347588;28;138251;-76
2021/07/05 00:04:38;;;;;;;6.10;1.77;;;;;;;;;;349839;28;69059;-76
2021/07/05 00:04:50;;;;;;;5.72;1.65;;;;;;;;;;349635;28;69049;-76
2021/07/05 00:05:04;;;;;;;5.35;1.80;;;;;;;;;;348431;28;67771;-76
2021/07/05 00:05:16;;;;;;;7.13;1.90;;;;;;;;;;348475;28;68976;-75
2021/07/05 00:05:28;;;;;;;6.32;1.70;;;;;;;;;;349799;28;67889;-77
2021/07/05 00:05:41;;;;;;;5.80;1.73;;;;;;;;;;350452;28;45335;-76
2021/07/05 00:05:53;;;;;;;6.36;1.76;;;;;;;;;;350439;28;46045;-76
2021/07/05 00:06:06;;;;;;;6.70;1.73;;;;;;;;;;350693;28;44904;-76
2021/07/05 00:06:18;;;;;;;6.18;1.80;;;;;;;;;;348417;28;70055;-76
2021/07/05 00:06:30;;;;;;;4.68;1.83;;;;;;;;;;349278;28;46076;-76
2021/07/05 00:06:43;;;;;;;6.46;1.94;;;;;;;;;;349178;28;47259;-76
2021/07/05 00:06:55;;;;;;;7.50;1.80;;;;;;;;;;349179;28;44563;-77
2021/07/05 00:07:08;;;;;;;6.88;1.64;;;;;;;;;;350370;28;46278;-76
2021/07/05 00:07:21;;;;;;;7.40;1.70;;;;;;;;;;350974;27;67864;-75
2021/07/05 00:07:33;;;;;;;8.15;1.80;;;;;;;;;;351964;27;46872;-75
2021/07/05 00:07:47;;;;;;;5.93;1.60;;;;;;;;;;349722;28;66339;-75
2021/07/05 00:07:59;;;;;;;6.72;1.70;;;;;;;;;;349808;28;68814;-76
2021/07/05 00:08:12;;;;;;;8.25;1.65;;;;;;;;;;349793;28;70131;-76
2021/07/05 00:08:24;;;;;;;6.82;1.70;;;;;;;;;;351746;27;47553;-76
2021/07/05 00:08:36;;;;;;;7.07;1.77;;;;;;;;;;351447;27;70025;-76
2021/07/05 00:08:49;;;;;;;6.13;1.80;;;;;;;;;;351894;27;46108;-77
2021/07/05 00:09:02;;;;;;;5.38;1.80;;;;;;;;;;351207;27;70031;-76
2021/07/05 00:09:14;;;;;;;5.55;1.73;;;;;;;;;;351251;27;68949;-76
2021/07/05 00:09:27;;;;;;;5.90;1.90;;;;;;;;;;350537;28;46038;-76
2021/07/05 00:09:41;;;;;;;5.93;1.90;;;;;;;;;;349533;28;70416;-77
2021/07/05 00:09:53;;;;;;;7.03;2.00;;;;;;;;;;350158;27;92083;-76
2021/07/05 00:10:06;;;;;;;6.82;1.85;;;;;;;;;;350549;28;47508;-76
2021/07/05 00:10:23;;;;;;;7.68;1.80;;;;;;;;;;348949;28;92098;-77
2021/07/05 00:10:35;;;;;;;7.35;1.90;;;;;;;;;;347341;28;137933;-78
2021/07/05 00:10:48;;;;;;;8.38;2.05;;;;;;;;;;348337;28;68859;-76
2021/07/05 00:11:00;;;;;;;8.45;1.92;;;;;;;;;;349236;28;46095;-79
2021/07/05 00:11:13;;;;;;;7.00;1.80;;;;;;;;;;348436;28;68546;-76
2021/07/05 00:11:25;;;;;;;6.82;1.90;;;;;;;;;;349553;28;44906;-75
2021/07/05 00:11:39;;;;;;;5.55;1.77;;;;;;;;;;349725;28;69015;-76
2021/07/05 00:11:51;;;;;;;5.93;1.70;;;;;;;;;;349482;28;70009;-76
2021/07/05 00:12:04;;;;;;;7.75;1.80;;;;;;;;;;349859;28;67888;-76
2021/07/05 00:12:17;;;;;;;8.52;1.80;;;;;;;;;;351171;27;67821;-76
2021/07/05 00:12:29;;;;;;;6.68;1.60;;;;;;;;;;351983;27;47270;-77
2021/07/05 00:12:45;;;;;;;5.80;1.67;;;;;;;;;;351483;27;47524;-76
2021/07/05 00:12:58;;;;;;;3.80;1.50;;;;;;;;;;347313;28;137826;-76
2021/07/05 00:13:11;;;;;;;3.45;1.60;;;;;;;;;;348440;28;69968;-76
2021/07/05 00:13:24;;;;;;;3.22;1.55;;;;;;;;;;349207;28;47208;-76
2021/07/05 00:13:36;;;;;;;3.38;1.60;;;;;;;;;;348246;28;68925;-76
2021/07/05 00:13:49;;;;;;;3.80;1.70;;;;;;;;;;348522;28;69036;-76
2021/07/05 00:14:01;;;;;;;5.10;1.60;;;;;;;;;;349228;28;45396;-76
2021/07/05 00:14:14;;;;;;;7.13;1.65;;;;;;;;;;348358;28;69886;-76
2021/07/05 00:14:26;;;;;;;6.75;1.65;;;;;;;;;;349135;28;44917;-76
2021/07/05 00:14:39;;;;;;;5.30;1.65;;;;;;;;;;350569;28;46045;-76
2021/07/05 00:14:51;;;;;;;5.48;1.74;;;;;;;;;;350565;28;46122;-75
2021/07/05 00:15:05;;;;;;;7.32;1.98;;;;;;;;;;350517;28;45419;-77
2021/07/05 00:15:22;;;;;;;7.35;1.92;;;;;;;;;;351119;27;68963;-77
2021/07/05 00:15:34;;;;;;;6.60;1.50;;;;;;;;;;346027;28;137632;-78
2021/07/05 00:15:47;;;;;;;6.47;1.52;;;;;;;;;;347829;28;45433;-77
2021/07/05 00:16:00;;;;;;;5.45;1.60;;;;;;;;;;346949;28;67849;-77
2021/07/05 00:16:12;;;;;;;6.40;1.70;;;;;;;;;;346869;28;67844;-76
2021/07/05 00:16:25;;;;;;;6.72;1.80;;;;;;;;;;346964;28;68928;-76
2021/07/05 00:16:37;;;;;;;5.93;1.77;;;;;;;;;;348302;28;44601;-76
2021/07/05 00:16:50;;;;;;;6.85;1.85;;;;;;;;;;348482;28;69003;-76
2021/07/05 00:17:03;;;;;;;6.93;1.90;;;;;;;;;;348261;28;70162;-76
2021/07/05 00:17:15;;;;;;;5.78;1.73;;;;;;;;;;348202;28;70524;-76
2021/07/05 00:17:28;;;;;;;4.85;1.60;;;;;;;;;;349219;28;46119;-76
2021/07/05 00:17:41;;;;;;;6.18;1.77;;;;;;;;;;349724;28;68963;-77
2021/07/05 00:18:00;;;;;;;6.43;2.08;;;;;;;;;;350623;28;47187;-76
2021/07/05 00:18:13;;;;;;;8.15;2.00;;;;;;;;;;347417;28;137435;-75
2021/07/05 00:18:25;;;;;;;9.07;2.00;;;;;;;;;;349896;28;67740;-76
2021/07/05 00:18:38;;;;;;;6.55;1.90;;;;;;;;;;350721;28;45638;-76
2021/07/05 00:18:50;;;;;;;6.97;1.95;;;;;;;;;;349811;28;68578;-77
2021/07/05 00:19:02;;;;;;;5.68;1.90;;;;;;;;;;350590;28;44927;-76
2021/07/05 00:19:15;;;;;;;4.82;1.75;;;;;;;;;;350609;28;46089;-77
2021/07/05 00:19:27;;;;;;;4.00;1.70;;;;;;;;;;349771;28;68996;-77
2021/07/05 00:19:40;;;;;;;4.28;1.70;;;;;;;;;;350529;28;46863;-76
2021/07/05 00:19:53;;;;;;;4.55;1.80;;;;;;;;;;350194;27;68933;-77
2021/07/05 00:20:06;;;;;;;4.53;1.70;;;;;;;;;;349725;28;68496;-77
2021/07/05 00:20:19;;;;;;;4.93;1.70;;;;;;;;;;349788;28;67895;-77
2021/07/05 00:20:34;;;;;;;4.45;1.52;;;;;;;;;;349732;28;67778;-77
2021/07/05 00:20:46;;;;;;;3.55;1.30;;;;;;;;;;348238;28;114828;-75
2021/07/05 00:20:59;;;;;;;4.07;1.30;;;;;;;;;;349797;28;69065;-76
2021/07/05 00:21:11;;;;;;;5.50;1.67;;;;;;;;;;350495;28;45621;-76
2021/07/05 00:21:24;;;;;;;5.05;1.60;;;;;;;;;;349707;28;70349;-77
2021/07/05 00:21:36;;;;;;;4.70;1.70;;;;;;;;;;349776;28;68902;-75
2021/07/05 00:21:49;;;;;;;4.38;1.70;;;;;;;;;;349004;28;44961;-76
2021/07/05 00:22:01;;;;;;;5.07;1.63;;;;;;;;;;348734;28;70039;-76
2021/07/05 00:22:14;;;;;;;4.60;1.80;;;;;;;;;;350607;28;47154;-75
2021/07/05 00:22:26;;;;;;;6.30;1.90;;;;;;;;;;349857;28;68932;-76
2021/07/05 00:22:39;;;;;;;6.63;1.75;;;;;;;;;;348464;28;69152;-76
2021/07/05 00:22:52;;;;;;;5.93;1.83;;;;;;;;;;348334;28;70259;-76
2021/07/05 00:23:06;;;;;;;6.43;1.95;;;;;;;;;;348512;28;67806;-76
2021/07/05 00:23:18;;;;;;;5.63;1.90;;;;;;;;;;347638;28;68983;-77
2021/07/05 00:23:30;;;;;;;5.57;1.80;;;;;;;;;;348910;28;46088;-76
2021/07/05 00:23:43;;;;;;;6.72;1.77;;;;;;;;;;348278;28;70269;-76
2021/07/05 00:23:55;;;;;;;5.65;1.50;;;;;;;;;;349067;28;45939;-76
2021/07/05 00:24:08;;;;;;;5.20;1.40;;;;;;;;;;348284;28;69101;-77
2021/07/05 00:24:20;;;;;;;5.95;1.55;;;;;;;;;;349309;28;44921;-76
2021/07/05 00:24:33;;;;;;;6.93;1.67;;;;;;;;;;348398;28;69112;-76
2021/07/05 00:24:45;;;;;;;7.70;1.88;;;;;;;;;;350506;28;45004;-76
2021/07/05 00:24:57;;;;;;;7.63;2.00;;;;;;;;;;350621;28;47129;-77
2021/07/05 00:25:10;;;;;;;7.00;2.10;;;;;;;;;;350508;28;44939;-76
2021/07/05 00:25:23;;;;;;;7.10;2.00;;;;;;;;;;350944;27;70117;-75
2021/07/05 00:25:36;;;;;;;7.25;1.90;;;;;;;;;;351168;27;68353;-75
2021/07/05 00:25:48;;;;;;;4.65;1.73;;;;;;;;;;351307;27;67852;-76
2021/07/05 00:26:01;;;;;;;4.48;1.70;;;;;;;;;;352088;27;47242;-75
2021/07/05 00:26:13;;;;;;;5.57;1.88;;;;;;;;;;351989;27;47151;-76
2021/07/05 00:26:25;;;;;;;5.00;1.80;;;;;;;;;;351848;27;45434;-77
2021/07/05 00:26:38;;;;;;;5.07;1.75;;;;;;;;;;351333;27;69990;-77
2021/07/05 00:26:50;;;;;;;4.65;1.65;;;;;;;;;;351988;27;45980;-76
2021/07/05 00:27:03;;;;;;;4.32;1.65;;;;;;;;;;351287;27;68808;-76
2021/07/05 00:27:15;;;;;;;5.05;1.85;;;;;;;;;;351980;27;46141;-76
2021/07/05 00:27:27;;;;;;;5.07;1.80;;;;;;;;;;351329;27;69833;-77
2021/07/05 00:27:40;;;;;;;4.68;1.80;;;;;;;;;;352206;27;45265;-76
2021/07/05 00:27:53;;;;;;;4.57;1.88;;;;;;;;;;352060;27;45582;-76
2021/07/05 00:28:05;;;;;;;6.32;1.98;;;;;;;;;;351206;27;70404;-76
2021/07/05 00:28:18;;;;;;;5.63;1.67;;;;;;;;;;352392;27;46077;-76
2021/07/05 00:28:30;;;;;;;5.53;1.67;;;;;;;;;;349879;28;70408;-76
2021/07/05 00:28:42;;;;;;;5.53;1.70;;;;;;;;;;350512;28;47224;-75
2021/07/05 00:28:55;;;;;;;5.20;1.60;;;;;;;;;;349730;28;68941;-75
2021/07/05 00:29:07;;;;;;;5.80;1.50;;;;;;;;;;350658;28;47538;-75
2021/07/05 00:29:19;;;;;;;5.64;1.50;;;;;;;;;;350773;28;44942;-75
2021/07/05 00:29:32;;;;;;;3.72;1.60;;;;;;;;;;350480;28;45339;-76
2021/07/05 00:29:44;;;;;;;4.57;1.65;;;;;;;;;;350591;28;45417;-76
2021/07/05 00:29:56;;;;;;;4.55;1.60;;;;;;;;;;349662;28;68970;-76
2021/07/05 00:30:09;;;;;;;5.70;1.60;;;;;;;;;;350548;28;45994;-76
2021/07/05 00:30:22;;;;;;;5.10;1.58;;;;;;;;;;349958;28;67789;-76
2021/07/05 00:30:35;;;;;;;4.45;1.67;;;;;;;;;;350918;27;69034;-76
2021/07/05 00:30:47;;;;;;;4.88;1.67;;;;;;;;;;351136;27;68888;-76
2021/07/05 00:31:00;;;;;;;5.40;1.65;;;;;;;;;;352047;28;46098;-77
2021/07/05 00:31:12;;;;;;;4.95;1.50;;;;;;;;;;351252;27;68997;-77
2021/07/05 00:31:25;;;;;;;5.68;1.63;;;;;;;;;;352045;27;47304;-76
2021/07/05 00:31:37;;;;;;;7.60;1.85;;;;;;;;;;351257;27;69025;-77
2021/07/05 00:31:50;;;;;;;7.68;1.90;;;;;;;;;;351277;27;70004;-77
2021/07/05 00:32:03;;;;;;;5.90;1.98;;;;;;;;;;349738;28;70128;-77
2021/07/05 00:32:16;;;;;;;4.28;1.70;;;;;;;;;;350522;28;47195;-77
2021/07/05 00:32:28;;;;;;;4.97;1.70;;;;;;;;;;349879;28;68801;-77
2021/07/05 00:32:41;;;;;;;5.75;1.60;;;;;;;;;;349820;28;68587;-75
2021/07/05 00:32:54;;;;;;;5.28;1.70;;;;;;;;;;349793;28;70010;-76
2021/07/05 00:33:07;;;;;;;5.45;1.85;;;;;;;;;;349727;28;67282;-77
2021/07/05 00:33:20;;;;;;;5.65;1.85;;;;;;;;;;349639;28;70688;-78
2021/07/05 00:33:36;;;;;;;4.78;1.60;;;;;;;;;;349759;28;67812;-77
2021/07/05 00:33:48;;;;;;;5.47;1.77;;;;;;;;;;347313;28;138279;-77
2021/07/05 00:34:01;;;;;;;6.78;1.80;;;;;;;;;;350683;27;46074;-77
2021/07/05 00:34:13;;;;;;;5.38;1.65;;;;;;;;;;351084;27;67811;-77
2021/07/05 00:34:25;;;;;;;5.03;1.70;;;;;;;;;;350466;28;47071;-76
2021/07/05 00:34:38;;;;;;;5.43;1.80;;;;;;;;;;349720;28;68907;-77
2021/07/05 00:34:51;;;;;;;5.80;1.70;;;;;;;;;;350493;28;46260;-78
2021/07/05 00:35:03;;;;;;;5.60;1.50;;;;;;;;;;349649;28;69024;-77
2021/07/05 00:35:17;;;;;;;5.50;1.80;;;;;;;;;;349699;28;69937;-77
2021/07/05 00:35:29;;;;;;;4.43;1.90;;;;;;;;;;349864;28;67761;-76
2021/07/05 00:35:42;;;;;;;5.88;2.10;;;;;;;;;;349829;28;68808;-77
2021/07/05 00:35:59;;;;;;;6.30;1.90;;;;;;;;;;347325;28;137691;-77
2021/07/05 00:36:11;;;;;;;5.10;1.80;;;;;;;;;;350663;28;47286;-76
2021/07/05 00:36:23;;;;;;;4.70;1.85;;;;;;;;;;350083;27;69998;-77
2021/07/05 00:36:36;;;;;;;4.93;1.90;;;;;;;;;;352163;27;46127;-76
2021/07/05 00:36:48;;;;;;;5.38;1.52;;;;;;;;;;351956;27;47161;-77
2021/07/05 00:37:00;;;;;;;4.65;1.35;;;;;;;;;;351241;27;67266;-76
2021/07/05 00:37:13;;;;;;;3.90;1.52;;;;;;;;;;351979;27;45385;-77
2021/07/05 00:37:25;;;;;;;4.55;1.73;;;;;;;;;;351141;27;68964;-77
2021/07/05 00:37:37;;;;;;;4.03;1.67;;;;;;;;;;352125;27;45399;-77
2021/07/05 00:37:52;;;;;;;6.53;1.70;;;;;;;;;;351219;27;67710;-77
2021/07/05 00:38:05;;;;;;;7.40;1.83;;;;;;;;;;349672;27;114907;-76
2021/07/05 00:38:17;;;;;;;6.10;1.88;;;;;;;;;;351993;27;45296;-77
2021/07/05 00:38:31;;;;;;;4.72;1.85;;;;;;;;;;351275;27;67631;-77
2021/07/05 00:38:44;;;;;;;6.28;2.00;;;;;;;;;;349677;28;68852;-75
2021/07/05 00:38:57;;;;;;;6.75;2.00;;;;;;;;;;348926;28;93073;-78
2021/07/05 00:39:09;;;;;;;6.78;1.90;;;;;;;;;;350546;28;44926;-77
2021/07/05 00:39:21;;;;;;;5.10;1.95;;;;;;;;;;348305;28;68964;-77
2021/07/05 00:39:34;;;;;;;4.80;1.90;;;;;;;;;;347711;28;46074;-76
2021/07/05 00:39:46;;;;;;;5.75;1.88;;;;;;;;;;346916;28;68957;-78
2021/07/05 00:39:59;;;;;;;6.65;1.70;;;;;;;;;;347787;28;47425;-77
2021/07/05 00:40:12;;;;;;;5.18;1.40;;;;;;;;;;346881;28;68980;-77
2021/07/05 00:40:25;;;;;;;4.47;1.40;;;;;;;;;;346922;28;68923;-76
2021/07/05 00:40:37;;;;;;;4.90;1.45;;;;;;;;;;346825;28;70015;-77
2021/07/05 00:40:50;;;;;;;7.15;1.70;;;;;;;;;;348266;28;70335;-77
2021/07/05 00:41:02;;;;;;;7.70;1.73;;;;;;;;;;349216;28;44973;-77
2021/07/05 00:41:15;;;;;;;7.82;1.80;;;;;;;;;;348480;28;68923;-77
2021/07/05 00:41:29;;;;;;;5.95;1.73;;;;;;;;;;349024;28;46066;-77
2021/07/05 00:41:42;;;;;;;6.20;1.80;;;;;;;;;;343944;28;116108;-77
2021/07/05 00:41:54;;;;;;;7.18;1.90;;;;;;;;;;346299;28;47165;-77
2021/07/05 00:42:07;;;;;;;7.43;1.95;;;;;;;;;;345567;28;68957;-76
2021/07/05 00:42:19;;;;;;;7.10;2.13;;;;;;;;;;346294;28;46108;-77
2021/07/05 00:42:32;;;;;;;8.00;2.10;;;;;;;;;;345628;28;67731;-76
2021/07/05 00:42:44;;;;;;;6.25;1.90;;;;;;;;;;346201;28;45625;-77
2021/07/05 00:42:58;;;;;;;6.32;1.67;;;;;;;;;;345090;28;91998;-76
2021/07/05 00:43:10;;;;;;;4.95;1.55;;;;;;;;;;345640;28;68946;-77
2021/07/05 00:43:23;;;;;;;5.75;1.80;;;;;;;;;;346370;28;46142;-76
2021/07/05 00:43:35;;;;;;;5.72;1.90;;;;;;;;;;346950;28;70042;-78
2021/07/05 00:43:47;;;;;;;6.07;1.90;;;;;;;;;;350390;28;46536;-78
2021/07/05 00:44:00;;;;;;;5.68;1.96;;;;;;;;;;351832;27;45544;-78
2021/07/05 00:44:12;;;;;;;5.97;2.05;;;;;;;;;;352024;27;45829;-77
2021/07/05 00:44:24;;;;;;;4.57;1.95;;;;;;;;;;352082;27;47538;-77
2021/07/05 00:44:37;;;;;;;5.30;1.92;;;;;;;;;;352197;27;70426;-77
2021/07/05 00:44:50;;;;;;;6.35;1.95;;;;;;;;;;350644;28;46103;-77
2021/07/05 00:45:04;;;;;;;4.50;1.70;;;;;;;;;;348982;28;91833;-76
2021/07/05 00:45:17;;;;;;;4.22;1.65;;;;;;;;;;349524;28;69670;-77
2021/07/05 00:45:30;;;;;;;5.63;1.80;;;;;;;;;;348994;28;92052;-77
2021/07/05 00:45:42;;;;;;;5.25;1.92;;;;;;;;;;349175;28;46807;-77
2021/07/05 00:45:54;;;;;;;4.45;1.80;;;;;;;;;;348312;28;69423;-77
2021/07/05 00:46:07;;;;;;;4.78;1.75;;;;;;;;;;349209;28;45407;-76
2021/07/05 00:46:19;;;;;;;6.47;1.60;;;;;;;;;;348303;28;69009;-76
2021/07/05 00:46:32;;;;;;;6.63;1.70;;;;;;;;;;349074;28;47336;-77
2021/07/05 00:46:45;;;;;;;6.38;1.90;;;;;;;;;;348462;28;67905;-77
2021/07/05 00:46:57;;;;;;;4.85;1.80;;;;;;;;;;349693;28;70107;-77
2021/07/05 00:47:10;;;;;;;4.10;1.60;;;;;;;;;;350416;28;47235;-76
2021/07/05 00:47:22;;;;;;;4.50;1.55;;;;;;;;;;349579;28;67859;-76
2021/07/05 00:47:35;;;;;;;6.82;1.80;;;;;;;;;;349097;28;46228;-77
2021/07/05 00:47:47;;;;;;;6.63;1.70;;;;;;;;;;349459;28;70320;-77
2021/07/05 00:48:00;;;;;;;5.10;1.70;;;;;;;;;;349616;28;67837;-77
2021/07/05 00:48:12;;;;;;;5.60;1.90;;;;;;;;;;350582;28;46067;-77
2021/07/05 00:48:25;;;;;;;5.68;2.00;;;;;;;;;;348182;28;70085;-77
2021/07/05 00:48:37;;;;;;;6.75;2.00;;;;;;;;;;348364;28;69021;-76
2021/07/05 00:48:50;;;;;;;6.05;2.00;;;;;;;;;;349305;28;45974;-77
2021/07/05 00:49:02;;;;;;;7.43;2.10;;;;;;;;;;346986;28;68969;-77
2021/07/05 00:49:15;;;;;;;7.93;2.22;;;;;;;;;;347809;28;46553;-78
2021/07/05 00:49:27;;;;;;;6.95;2.10;;;;;;;;;;347048;28;68984;-78
2021/07/05 00:49:48;;;;;;;5.80;1.95;;;;;;;;;;345899;28;138697;-77
2021/07/05 00:50:00;;;;;;;5.47;1.85;;;;;;;;;;346934;28;69876;-78
2021/07/05 00:50:14;;;;;;;5.32;1.75;;;;;;;;;;347069;28;70181;-77
2021/07/05 00:50:28;;;;;;;6.05;1.90;;;;;;;;;;347638;28;69968;-77
2021/07/05 00:50:40;;;;;;;5.63;1.77;;;;;;;;;;346215;28;93263;-77
2021/07/05 00:50:52;;;;;;;5.13;1.80;;;;;;;;;;347815;28;44690;-77
2021/07/05 00:51:05;;;;;;;4.43;1.77;;;;;;;;;;346948;28;70154;-78
2021/07/05 00:51:17;;;;;;;4.32;1.80;;;;;;;;;;347757;28;46264;-77
2021/07/05 00:51:30;;;;;;;5.00;1.80;;;;;;;;;;346782;28;70337;-76
2021/07/05 00:51:42;;;;;;;5.47;1.90;;;;;;;;;;347653;28;46071;-76
2021/07/05 00:51:54;;;;;;;7.22;2.10;;;;;;;;;;346858;28;69988;-77
2021/07/05 00:52:07;;;;;;;7.07;2.20;;;;;;;;;;349078;28;46704;-77
2021/07/05 00:52:20;;;;;;;8.15;2.40;;;;;;;;;;346941;28;68908;-77
2021/07/05 00:52:32;;;;;;;7.25;2.40;;;;;;;;;;347551;28;46509;-77
2021/07/05 00:52:46;;;;;;;6.30;1.98;;;;;;;;;;345631;28;68994;-77
2021/07/05 00:53:00;;;;;;;6.53;1.60;;;;;;;;;;344785;28;93323;-76
2021/07/05 00:53:13;;;;;;;6.50;1.67;;;;;;;;;;343979;28;115140;-77
2021/07/05 00:53:25;;;;;;;5.55;1.83;;;;;;;;;;346403;28;46074;-78
2021/07/05 00:53:38;;;;;;;7.28;2.20;;;;;;;;;;346666;28;67975;-78
2021/07/05 00:53:51;;;;;;;7.30;2.20;;;;;;;;;;347540;28;46924;-78
2021/07/05 00:54:03;;;;;;;6.22;2.10;;;;;;;;;;347005;28;68868;-77
2021/07/05 00:54:16;;;;;;;6.50;1.90;;;;;;;;;;347837;28;46106;-77
2021/07/05 00:54:28;;;;;;;6.90;1.83;;;;;;;;;;348244;28;70025;-78
2021/07/05 00:54:40;;;;;;;6.64;1.72;;;;;;;;;;350493;28;47349;-77
2021/07/05 00:54:53;;;;;;;6.50;1.77;;;;;;;;;;352074;27;44811;-77
2021/07/05 00:55:07;;;;;;;7.75;1.42;;;;;;;;;;351065;27;68279;-78
2021/07/05 00:55:19;;;;;;;6.76;1.46;;;;;;;;;;350542;27;93134;-78
2021/07/05 00:55:32;;;;;;;5.40;1.63;;;;;;;;;;351856;27;47300;-77
2021/07/05 00:55:45;;;;;;;5.53;1.80;;;;;;;;;;351092;27;67844;-77
2021/07/05 00:55:58;;;;;;;6.28;1.77;;;;;;;;;;351071;27;68357;-77
2021/07/05 00:56:10;;;;;;;5.40;1.67;;;;;;;;;;351264;27;69004;-77
2021/07/05 00:56:23;;;;;;;5.57;1.65;;;;;;;;;;351088;27;69001;-77
2021/07/05 00:56:36;;;;;;;7.28;1.90;;;;;;;;;;351956;27;46169;-76
2021/07/05 00:56:49;;;;;;;7.47;2.05;;;;;;;;;;350322;27;92042;-77
2021/07/05 00:57:02;;;;;;;5.90;1.80;;;;;;;;;;351873;27;45417;-76
2021/07/05 00:57:21;;;;;;;3.85;1.55;;;;;;;;;;351044;27;68951;-77
2021/07/05 00:57:33;;;;;;;4.75;1.75;;;;;;;;;;348130;27;139049;-77
2021/07/05 00:57:46;;;;;;;6.82;1.80;;;;;;;;;;351097;27;69005;-77
2021/07/05 00:57:59;;;;;;;6.85;1.70;;;;;;;;;;352023;27;45400;-77
2021/07/05 00:58:11;;;;;;;5.05;1.70;;;;;;;;;;350381;27;93219;-76
2021/07/05 00:58:24;;;;;;;4.63;1.73;;;;;;;;;;351870;27;46087;-77
2021/07/05 00:58:36;;;;;;;5.18;1.83;;;;;;;;;;351319;27;67801;-78
2021/07/05 00:58:48;;;;;;;5.43;1.80;;;;;;;;;;352026;27;46117;-77
2021/07/05 00:59:01;;;;;;;5.95;1.80;;;;;;;;;;352069;27;47269;-78
2021/07/05 00:59:15;;;;;;;5.85;1.70;;;;;;;;;;349582;28;69120;-78
2021/07/05 00:59:28;;;;;;;5.63;1.70;;;;;;;;;;348070;28;116178;-76
2021/07/05 00:59:41;;;;;;;5.60;1.70;;;;;;;;;;350393;28;47120;-77
2021/07/05 00:59:54;;;;;;;6.35;1.70;;;;;;;;;;349714;28;69048;-77
2021/07/05 01:00:09;;;;;;;6.47;1.90;;;;;;;;;;351081;28;68978;-77
2021/07/05 01:00:22;;;;;;;5.65;1.88;;;;;;;;;;349454;27;115902;-78
2021/07/05 01:00:35;;;;;;;4.53;1.67;;;;;;;;;;350394;27;92003;-78
2021/07/05 01:00:47;;;;;;;5.60;1.70;;;;;;;;;;350646;28;46054;-77
2021/07/05 01:01:00;;;;;;;6.38;1.80;;;;;;;;;;349732;28;68823;-77
2021/07/05 01:01:12;;;;;;;6.85;1.80;;;;;;;;;;350682;27;47186;-77
2021/07/05 01:01:25;;;;;;;5.70;1.83;;;;;;;;;;350937;27;70158;-77
2021/07/05 01:01:37;;;;;;;6.15;1.70;;;;;;;;;;350487;28;44918;-76
2021/07/05 01:01:49;;;;;;;7.13;1.70;;;;;;;;;;349772;28;67907;-78
2021/07/05 01:02:02;;;;;;;6.60;1.80;;;;;;;;;;350429;28;47162;-77
2021/07/05 01:02:15;;;;;;;7.78;2.00;;;;;;;;;;349659;28;70371;-78
2021/07/05 01:02:28;;;;;;;7.65;2.00;;;;;;;;;;348782;28;91285;-78
2021/07/05 01:02:40;;;;;;;8.88;2.00;;;;;;;;;;350547;28;45028;-78
2021/07/05 01:02:54;;;;;;;7.60;1.90;;;;;;;;;;349535;28;70313;-78
2021/07/05 01:03:07;;;;;;;6.03;1.83;;;;;;;;;;349014;28;91964;-77
2021/07/05 01:03:19;;;;;;;5.38;1.60;;;;;;;;;;350459;28;47207;-76
2021/07/05 01:03:32;;;;;;;5.85;1.65;;;;;;;;;;349706;28;70054;-77
2021/07/05 01:03:44;;;;;;;6.30;1.70;;;;;;;;;;351431;27;68955;-78
2021/07/05 01:03:57;;;;;;;5.80;1.90;;;;;;;;;;353174;27;46632;-77
2021/07/05 01:04:09;;;;;;;5.72;1.83;;;;;;;;;;353201;27;44984;-77
2021/07/05 01:04:21;;;;;;;6.32;1.90;;;;;;;;;;352506;27;69034;-78
2021/07/05 01:04:34;;;;;;;6.25;1.80;;;;;;;;;;353411;27;46245;-79
2021/07/05 01:04:47;;;;;;;4.88;1.73;;;;;;;;;;352373;27;70007;-78
2021/07/05 01:04:59;;;;;;;4.03;1.55;;;;;;;;;;352474;27;70077;-78
2021/07/05 01:05:12;;;;;;;3.28;1.50;;;;;;;;;;353277;27;45060;-77
2021/07/05 01:05:25;;;;;;;4.80;1.65;;;;;;;;;;351111;27;68958;-77
2021/07/05 01:05:37;;;;;;;6.53;1.83;;;;;;;;;;351059;27;67917;-77
2021/07/05 01:05:49;;;;;;;7.15;2.00;;;;;;;;;;350742;28;46071;-78
2021/07/05 01:06:02;;;;;;;7.55;2.08;;;;;;;;;;350690;27;68450;-78
2021/07/05 01:06:14;;;;;;;6.88;2.00;;;;;;;;;;351774;27;47157;-78
2021/07/05 01:06:27;;;;;;;4.65;1.75;;;;;;;;;;351055;27;68834;-78
2021/07/05 01:06:39;;;;;;;5.35;1.63;;;;;;;;;;351094;27;68976;-77
2021/07/05 01:06:52;;;;;;;5.95;1.70;;;;;;;;;;352247;27;46151;-77
2021/07/05 01:07:04;;;;;;;5.47;1.58;;;;;;;;;;351039;27;67851;-78
2021/07/05 01:07:17;;;;;;;5.22;1.50;;;;;;;;;;352040;27;46010;-77
2021/07/05 01:07:30;;;;;;;4.07;1.60;;;;;;;;;;352318;27;68885;-77
2021/07/05 01:07:43;;;;;;;4.47;1.67;;;;;;;;;;350944;27;66079;-78
2021/07/05 01:07:56;;;;;;;5.00;1.60;;;;;;;;;;351085;27;67931;-77
2021/07/05 01:08:08;;;;;;;5.80;1.60;;;;;;;;;;351093;27;68969;-77
2021/07/05 01:08:21;;;;;;;5.53;1.40;;;;;;;;;;350958;27;68817;-77
2021/07/05 01:08:33;;;;;;;5.20;1.40;;;;;;;;;;351679;27;46585;-78
2021/07/05 01:08:46;;;;;;;5.28;1.67;;;;;;;;;;349685;28;69054;-77
2021/07/05 01:08:58;;;;;;;4.97;1.75;;;;;;;;;;350519;28;44964;-77
2021/07/05 01:09:11;;;;;;;4.82;1.67;;;;;;;;;;349669;28;69071;-76
2021/07/05 01:09:23;;;;;;;6.07;1.73;;;;;;;;;;350726;28;47225;-78
2021/07/05 01:09:35;;;;;;;6.07;1.67;;;;;;;;;;349732;28;68999;-77
2021/07/05 01:09:48;;;;;;;5.80;1.80;;;;;;;;;;351511;27;47531;-77
2021/07/05 01:10:01;;;;;;;6.95;1.90;;;;;;;;;;350946;27;70634;-77
2021/07/05 01:10:15;;;;;;;7.80;1.90;;;;;;;;;;351150;27;70470;-78
2021/07/05 01:10:27;;;;;;;6.32;1.73;;;;;;;;;;350374;27;91962;-77
2021/07/05 01:10:40;;;;;;;6.47;1.75;;;;;;;;;;352020;27;44990;-78
2021/07/05 01:10:52;;;;;;;8.32;1.92;;;;;;;;;;352437;27;70005;-79
2021/07/05 01:11:05;;;;;;;6.97;2.10;;;;;;;;;;353405;27;45458;-77
2021/07/05 01:11:19;;;;;;;4.93;1.92;;;;;;;;;;352431;27;68799;-78
2021/07/05 01:11:32;;;;;;;4.50;1.70;;;;;;;;;;350145;27;93019;-77
2021/07/05 01:11:44;;;;;;;5.10;1.60;;;;;;;;;;350968;27;69842;-77
2021/07/05 01:11:56;;;;;;;5.05;1.60;;;;;;;;;;351776;27;46123;-78
2021/07/05 01:12:09;;;;;;;4.45;1.63;;;;;;;;;;350980;27;69146;-78
2021/07/05 01:12:21;;;;;;;4.44;1.66;;;;;;;;;;351736;27;47312;-77
2021/07/05 01:12:34;;;;;;;5.32;1.90;;;;;;;;;;352280;27;45340;-77
2021/07/05 01:12:47;;;;;;;5.97;1.85;;;;;;;;;;351349;27;68504;-78
2021/07/05 01:13:01;;;;;;;6.65;1.90;;;;;;;;;;351073;27;67815;-78
2021/07/05 01:13:13;;;;;;;6.07;1.80;;;;;;;;;;351048;27;67800;-79
2021/07/05 01:13:26;;;;;;;5.15;1.90;;;;;;;;;;349633;28;69898;-79
2021/07/05 01:13:38;;;;;;;5.95;1.98;;;;;;;;;;351383;27;68887;-78
2021/07/05 01:13:51;;;;;;;6.22;1.90;;;;;;;;;;351904;27;44991;-77
2021/07/05 01:14:03;;;;;;;7.40;2.17;;;;;;;;;;350905;27;68974;-78
2021/07/05 01:14:16;;;;;;;8.10;2.45;;;;;;;;;;351870;27;44585;-77
2021/07/05 01:14:28;;;;;;;6.60;2.50;;;;;;;;;;351019;27;68548;-77
2021/07/05 01:14:41;;;;;;;6.43;2.60;;;;;;;;;;352218;27;45419;-77
2021/07/05 01:14:53;;;;;;;8.48;2.63;;;;;;;;;;350947;27;68955;-78
2021/07/05 01:15:07;;;;;;;8.07;2.35;;;;;;;;;;351613;27;47105;-77
2021/07/05 01:15:21;;;;;;;7.15;2.13;;;;;;;;;;350184;28;91244;-77
2021/07/05 01:15:34;;;;;;;6.10;2.10;;;;;;;;;;350957;27;114805;-78
2021/07/05 01:15:46;;;;;;;5.66;2.06;;;;;;;;;;353428;27;45497;-77
2021/07/05 01:15:59;;;;;;;5.47;2.00;;;;;;;;;;353250;27;44907;-77
2021/07/05 01:16:12;;;;;;;6.18;1.95;;;;;;;;;;352535;27;68982;-78
2021/07/05 01:16:24;;;;;;;6.45;2.10;;;;;;;;;;351960;27;68954;-77
2021/07/05 01:16:40;;;;;;;6.45;2.15;;;;;;;;;;352541;27;46731;-76
2021/07/05 01:16:53;;;;;;;5.43;2.05;;;;;;;;;;350069;27;137973;-78
2021/07/05 01:17:10;;;;;;;4.55;2.10;;;;;;;;;;352544;27;68900;-78
2021/07/05 01:17:23;;;;;;;5.13;1.95;;;;;;;;;;350176;27;137614;-78
2021/07/05 01:17:36;;;;;;;6.18;1.85;;;;;;;;;;353360;27;44812;-76
2021/07/05 01:17:49;;;;;;;6.20;2.10;;;;;;;;;;352561;27;68993;-77